Terrapin Island — KGDS — position and weather

sailwx.info

Track history (hours):
 
Tides and Currents Weather Stations Pressure Air Temp Water Temp Dewpoint Dewpoint Depression Visibility Wind Speed Wind Dir Waves Ship Positions

Terrapin Island

Owner: Great Lakes Dredge & Dock Company, LLC., Oak Brook, IL. More information available from US FCC via Universal Licensing System and Coast Guard Vessel Documentation Center.

Last reported at 2018-Jan-18 09:27 UTC. Time now 2018-Feb-17 21:06 UTC.
Position N 32°06' W 080°27'.
Warning: this ship's position is 30 days out of date.

Length 106 m; draft 5.5 m.

Type: Dredging. MMSI: 366692000.

Date/timePositionNaut miles runAvg speedWind from/ knotsBaromVisibWave heightAir tempDewpointWater temp
2018-Jan-18 09:27N 32°06' W 080°27'3 7.6
2018-Jan-18 09:00N 32°04' W 080°30'4 7.6
2018-Jan-18 08:30N 32°02' W 080°34'4 7.7
2018-Jan-18 08:00N 32°00' W 080°38'4 7.8
2018-Jan-18 07:30N 31°58' W 080°42'4 7.8
2018-Jan-18 07:00N 31°56' W 080°46'1 1.3
2018-Jan-18 06:30N 31°57' W 080°46'1 1.7
2018-Jan-18 06:00N 31°56' W 080°45'3 6.8
2018-Jan-18 05:30N 31°57' W 080°41'3 5.8
2018-Jan-18 05:00N 31°57' W 080°38'1 1.0
2018-Jan-18 04:23N 31°57' W 080°39'3 2.6
2018-Jan-18 03:06N 31°58' W 080°42'0 2.2
2018-Jan-18 03:00N 31°58' W 080°43'2 4.3
2018-Jan-18 02:30N 31°56' W 080°44'1 2.8
2018-Jan-18 02:00N 31°56' W 080°46'4 6.2
2018-Jan-18 01:20N 31°56' W 080°41'2 6.6
2018-Jan-18 01:00N 31°57' W 080°39'1 0.5
2018-Jan-18 00:00N 31°57' W 080°39'0 1.0
2018-Jan-17 23:57N 31°57' W 080°39'  
2018-Jan-12 15:00N 31°57' W 080°39'0 0.6
2018-Jan-12 14:29N 31°57' W 080°39'0 0.7
2018-Jan-12 14:00N 31°57' W 080°39'3 6.6
2018-Jan-12 13:30N 31°57' W 080°43'3 6.0
2018-Jan-12 13:00N 31°56' W 080°46'2 3.2
2018-Jan-12 12:28N 31°56' W 080°44'3 5.0
2018-Jan-12 11:49N 31°57' W 080°41'2 6.3
2018-Jan-12 11:29N 31°57' W 080°38'1 1.0
2018-Jan-12 10:59N 31°57' W 080°39'0 0.5
2018-Jan-12 10:29N 31°57' W 080°39'1 2.6
2018-Jan-12 10:00N 31°57' W 080°40'4 7.3
2018-Jan-12 09:29N 31°56' W 080°45'1 2.3
2018-Jan-12 09:00N 31°56' W 080°46'5 2.1
2018-Jan-12 06:37N 31°57' W 080°40'1 6.3
2018-Jan-12 06:29N 31°57' W 080°41'3 6.1
2018-Jan-12 06:00N 31°56' W 080°45'1 2.0
2018-Jan-12 05:30N 31°56' W 080°43'5 7.4
2018-Jan-12 04:49N 31°57' W 080°38'1 2.0
2018-Jan-12 04:26N 31°57' W 080°38'1 1.1
2018-Jan-12 03:33N 31°57' W 080°40'1 6.3
2018-Jan-12 03:25N 31°57' W 080°40'3 7.2
2018-Jan-12 03:00N 31°57' W 080°44'2 4.1
2018-Jan-12 02:30N 31°57' W 080°46'3 6.3
2018-Jan-12 01:59N 31°57' W 080°43'3 6.8
2018-Jan-12 01:29N 31°57' W 080°38'0 0.8
2018-Jan-12 01:00N 31°57' W 080°39'2 2.8
2018-Jan-12 00:13N 31°58' W 080°41'1 6.6
2018-Jan-12 00:00N 31°58' W 080°43'3 6.8
2018-Jan-11 23:30N 31°59' W 080°46'3 6.8
2018-Jan-11 23:00N 32°02' W 080°49'2 3.4
2018-Jan-11 22:30N 32°02' W 080°51'1 2.8
2018-Jan-11 22:00N 32°02' W 080°53'0 0.0
2018-Jan-11 21:30N 32°02' W 080°53'0 0.2
2018-Jan-11 21:00N 32°02' W 080°53'0 0.3
2018-Jan-11 20:30N 32°02' W 080°53'1 1.5
2018-Jan-11 20:00N 32°02' W 080°52'4 7.1
2018-Jan-11 19:30N 32°01' W 080°48'4 7.0
2018-Jan-11 18:55N 31°58' W 080°45'2 4.9
2018-Jan-11 18:30N 31°56' W 080°45'2 3.5
2018-Jan-11 18:00N 31°56' W 080°43'4 7.4
2018-Jan-11 17:26N 31°57' W 080°38'1 1.2
2018-Jan-11 16:16N 31°57' W 080°39'1 5.5
2018-Jan-11 16:00N 31°57' W 080°41'3 6.2
2018-Jan-11 15:30N 31°56' W 080°44'1 2.5
2018-Jan-11 15:00N 31°56' W 080°43'4 7.3
2018-Jan-11 14:24N 31°57' W 080°38'1 1.4
2018-Jan-11 13:57N 31°57' W 080°39'0 0.7
2018-Jan-11 13:27N 31°57' W 080°39'1 2.8
2018-Jan-11 13:00N 31°57' W 080°40'3 5.8
2018-Jan-11 12:30N 31°57' W 080°44'2 3.4
2018-Jan-11 12:00N 31°56' W 080°46'0 0.5
2018-Jan-11 11:30N 31°56' W 080°45'5 7.4
2018-Jan-11 10:47N 31°57' W 080°39'1 2.8
2018-Jan-11 10:28N 31°57' W 080°38'0 0.7
2018-Jan-11 09:50N 31°57' W 080°39'1 2.0
2018-Jan-11 09:24N 31°57' W 080°40'3 6.4
2018-Jan-11 09:00N 31°57' W 080°43'2 4.6
2018-Jan-11 08:30N 31°56' W 080°45'0 0.2
2018-Jan-11 07:59N 31°56' W 080°46'4 7.5
2018-Jan-11 07:24N 31°57' W 080°40'1 1.2
2018-Jan-11 06:18N 31°57' W 080°39'1 1.8
2018-Jan-11 05:59N 31°57' W 080°40'3 5.8
2018-Jan-11 05:29N 31°56' W 080°43'2 4.3
2018-Jan-11 05:00N 31°56' W 080°45'4 7.3
2018-Jan-11 04:30N 31°57' W 080°41'2 4.1
2018-Jan-11 03:58N 31°57' W 080°38'0 0.8
2018-Jan-11 03:30N 31°57' W 080°39'1 1.3
2018-Jan-11 03:00N 31°57' W 080°40'2 4.6
2018-Jan-11 02:30N 31°57' W 080°42'3 5.2
2018-Jan-11 02:00N 31°56' W 080°45'3 5.6
2018-Jan-11 01:29N 31°56' W 080°42'1 0.5
2018-Jan-10 23:26N 31°56' W 080°43'3 6.0
2018-Jan-10 22:59N 31°56' W 080°46'5 2.1
2018-Jan-10 20:24N 31°57' W 080°40'2 3.9
2018-Jan-10 19:57N 31°57' W 080°42'3 5.8
2018-Jan-10 19:30N 31°56' W 080°45'0 0.1
2018-Jan-10 19:00N 31°56' W 080°45'4 7.2
2018-Jan-10 18:30N 31°56' W 080°40'2 2.1
2018-Jan-10 17:42N 31°57' W 080°39'2 2.3
2018-Jan-10 16:59N 31°57' W 080°41'3 5.9
2018-Jan-10 16:30N 31°56' W 080°44'1 1.6
2018-Jan-10 16:00N 31°56' W 080°45'2 1.0
2018-Jan-10 13:50N 31°57' W 080°42'3 6.8
2018-Jan-10 13:28N 31°56' W 080°45'1 2.8
2018-Jan-10 13:00N 31°57' W 080°47'4 5.9
2018-Jan-10 12:21N 31°56' W 080°42'3 4.5
2018-Jan-10 11:38N 31°57' W 080°38'0 0.5
2018-Jan-10 11:30N 31°57' W 080°39'0 0.7
2018-Jan-10 11:00N 31°57' W 080°39'2 4.4
2018-Jan-10 10:30N 31°57' W 080°42'3 6.9
2018-Jan-10 10:00N 31°56' W 080°46'0 0.3
2018-Jan-10 09:30N 31°56' W 080°46'4 7.1
2018-Jan-10 08:57N 31°56' W 080°41'3 6.4
2018-Jan-10 08:31N 31°57' W 080°38'1 1.7
2018-Jan-10 07:58N 31°57' W 080°39'0 0.9
2018-Jan-10 07:30N 31°57' W 080°39'3 5.9
2018-Jan-10 07:00N 31°57' W 080°43'2 4.2
2018-Jan-10 06:30N 31°56' W 080°45'3 6.7
2018-Jan-10 06:00N 31°57' W 080°41'2 2.8
2018-Jan-10 05:12N 31°57' W 080°38'0 1.0
2018-Jan-10 04:49N 31°57' W 080°39'1 1.7
2018-Jan-10 04:30N 31°57' W 080°39'3 6.6
2018-Jan-10 04:00N 31°56' W 080°43'2 3.0
2018-Jan-10 03:30N 31°56' W 080°45'4 8.0
2018-Jan-10 02:59N 31°57' W 080°40'1 2.4
2018-Jan-10 02:22N 31°57' W 080°38'0 0.8
2018-Jan-10 01:57N 31°57' W 080°39'0 0.5
2018-Jan-10 01:30N 31°57' W 080°39'3 5.8
2018-Jan-10 01:00N 31°57' W 080°42'3 6.8
2018-Jan-10 00:30N 31°56' W 080°46'2 4.0
2018-Jan-10 00:00N 31°57' W 080°44'2 3.6
2018-Jan-09 23:29N 31°57' W 080°42'3 6.3
2018-Jan-09 23:00N 31°57' W 080°38'6 0.2
2018-Jan-08 20:19N 31°60' W 080°44'0 0.0
2018-Jan-08 19:55N 31°60' W 080°44'0 0.0
2018-Jan-08 19:25N 31°60' W 080°44'0 0.0
2018-Jan-08 18:55N 31°60' W 080°44'0 0.0
2018-Jan-08 18:25N 31°60' W 080°44'0 0.0
2018-Jan-08 17:55N 31°60' W 080°44'0 0.0
2018-Jan-08 17:25N 31°60' W 080°44'0 0.0
2018-Jan-08 16:55N 31°60' W 080°44'0 0.0
2018-Jan-08 16:25N 31°60' W 080°44'0 0.0
2018-Jan-08 15:55N 31°60' W 080°44'0 0.0
2018-Jan-08 15:25N 31°60' W 080°44'0 0.0
2018-Jan-08 14:49N 31°60' W 080°44'0 0.0
2018-Jan-08 14:25N 31°60' W 080°44'0 0.0
2018-Jan-08 13:55N 31°60' W 080°44'0 0.0
2018-Jan-08 13:13N 31°60' W 080°44'0 0.0
2018-Jan-08 12:55N 31°60' W 080°44'0 0.0
2018-Jan-08 12:25N 31°60' W 080°44'0 0.0
2018-Jan-08 11:55N 31°60' W 080°44'0 0.0
2018-Jan-08 11:25N 31°60' W 080°44'0 0.0
2018-Jan-08 10:55N 31°60' W 080°44'0 0.0
2018-Jan-08 10:19N 31°60' W 080°44'0 0.0
2018-Jan-08 09:55N 31°60' W 080°44'  
Track history (hours):
 
Tides and Currents Weather Stations Pressure Air Temp Water Temp Dewpoint Dewpoint Depression Visibility Wind Speed Wind Dir Waves Ship Positions

Terrapin Island

Owner: Great Lakes Dredge & Dock Company, LLC., Oak Brook, IL. More information available from US FCC via Universal Licensing System and Coast Guard Vessel Documentation Center.

Last reported at 2018-Jan-18 09:27 UTC. Time now 2018-Feb-17 21:06 UTC.
Position N 32°06' W 080°27'.
Warning: this ship's position is 30 days out of date.

Length 106 m; draft 5.5 m.

Type: Dredging. MMSI: 366692000.

Date/timePositionNaut miles runAvg speedWind from/ knotsBaromVisibWave heightAir tempDewpointWater temp
2018-Jan-18 09:27N 32°06' W 080°27'3 7.6
2018-Jan-18 09:00N 32°04' W 080°30'4 7.6
2018-Jan-18 08:30N 32°02' W 080°34'4 7.7
2018-Jan-18 08:00N 32°00' W 080°38'4 7.8
2018-Jan-18 07:30N 31°58' W 080°42'4 7.8
2018-Jan-18 07:00N 31°56' W 080°46'1 1.3
2018-Jan-18 06:30N 31°57' W 080°46'1 1.7
2018-Jan-18 06:00N 31°56' W 080°45'3 6.8
2018-Jan-18 05:30N 31°57' W 080°41'3 5.8
2018-Jan-18 05:00N 31°57' W 080°38'1 1.0
2018-Jan-18 04:23N 31°57' W 080°39'3 2.6
2018-Jan-18 03:06N 31°58' W 080°42'0 2.2
2018-Jan-18 03:00N 31°58' W 080°43'2 4.3
2018-Jan-18 02:30N 31°56' W 080°44'1 2.8
2018-Jan-18 02:00N 31°56' W 080°46'4 6.2
2018-Jan-18 01:20N 31°56' W 080°41'2 6.6
2018-Jan-18 01:00N 31°57' W 080°39'1 0.5
2018-Jan-18 00:00N 31°57' W 080°39'0 1.0
2018-Jan-17 23:57N 31°57' W 080°39'  
2018-Jan-12 15:00N 31°57' W 080°39'0 0.6
2018-Jan-12 14:29N 31°57' W 080°39'0 0.7
2018-Jan-12 14:00N 31°57' W 080°39'3 6.6
2018-Jan-12 13:30N 31°57' W 080°43'3 6.0
2018-Jan-12 13:00N 31°56' W 080°46'2 3.2
2018-Jan-12 12:28N 31°56' W 080°44'3 5.0
2018-Jan-12 11:49N 31°57' W 080°41'2 6.3
2018-Jan-12 11:29N 31°57' W 080°38'1 1.0
2018-Jan-12 10:59N 31°57' W 080°39'0 0.5
2018-Jan-12 10:29N 31°57' W 080°39'1 2.6
2018-Jan-12 10:00N 31°57' W 080°40'4 7.3
2018-Jan-12 09:29N 31°56' W 080°45'1 2.3
2018-Jan-12 09:00N 31°56' W 080°46'5 2.1
2018-Jan-12 06:37N 31°57' W 080°40'1 6.3
2018-Jan-12 06:29N 31°57' W 080°41'3 6.1
2018-Jan-12 06:00N 31°56' W 080°45'1 2.0
2018-Jan-12 05:30N 31°56' W 080°43'5 7.4
2018-Jan-12 04:49N 31°57' W 080°38'1 2.0
2018-Jan-12 04:26N 31°57' W 080°38'1 1.1
2018-Jan-12 03:33N 31°57' W 080°40'1 6.3
2018-Jan-12 03:25N 31°57' W 080°40'3 7.2
2018-Jan-12 03:00N 31°57' W 080°44'2 4.1
2018-Jan-12 02:30N 31°57' W 080°46'3 6.3
2018-Jan-12 01:59N 31°57' W 080°43'3 6.8
2018-Jan-12 01:29N 31°57' W 080°38'0 0.8
2018-Jan-12 01:00N 31°57' W 080°39'2 2.8
2018-Jan-12 00:13N 31°58' W 080°41'1 6.6
2018-Jan-12 00:00N 31°58' W 080°43'3 6.8
2018-Jan-11 23:30N 31°59' W 080°46'3 6.8
2018-Jan-11 23:00N 32°02' W 080°49'2 3.4
2018-Jan-11 22:30N 32°02' W 080°51'1 2.8
2018-Jan-11 22:00N 32°02' W 080°53'0 0.0
2018-Jan-11 21:30N 32°02' W 080°53'0 0.2
2018-Jan-11 21:00N 32°02' W 080°53'0 0.3
2018-Jan-11 20:30N 32°02' W 080°53'1 1.5
2018-Jan-11 20:00N 32°02' W 080°52'4 7.1
2018-Jan-11 19:30N 32°01' W 080°48'4 7.0
2018-Jan-11 18:55N 31°58' W 080°45'2 4.9
2018-Jan-11 18:30N 31°56' W 080°45'2 3.5
2018-Jan-11 18:00N 31°56' W 080°43'4 7.4
2018-Jan-11 17:26N 31°57' W 080°38'1 1.2
2018-Jan-11 16:16N 31°57' W 080°39'1 5.5
2018-Jan-11 16:00N 31°57' W 080°41'3 6.2
2018-Jan-11 15:30N 31°56' W 080°44'1 2.5
2018-Jan-11 15:00N 31°56' W 080°43'4 7.3
2018-Jan-11 14:24N 31°57' W 080°38'1 1.4
2018-Jan-11 13:57N 31°57' W 080°39'0 0.7
2018-Jan-11 13:27N 31°57' W 080°39'1 2.8
2018-Jan-11 13:00N 31°57' W 080°40'3 5.8
2018-Jan-11 12:30N 31°57' W 080°44'2 3.4
2018-Jan-11 12:00N 31°56' W 080°46'0 0.5
2018-Jan-11 11:30N 31°56' W 080°45'5 7.4
2018-Jan-11 10:47N 31°57' W 080°39'1 2.8
2018-Jan-11 10:28N 31°57' W 080°38'0 0.7
2018-Jan-11 09:50N 31°57' W 080°39'1 2.0
2018-Jan-11 09:24N 31°57' W 080°40'3 6.4
2018-Jan-11 09:00N 31°57' W 080°43'2 4.6
2018-Jan-11 08:30N 31°56' W 080°45'0 0.2
2018-Jan-11 07:59N 31°56' W 080°46'4 7.5
2018-Jan-11 07:24N 31°57' W 080°40'1 1.2
2018-Jan-11 06:18N 31°57' W 080°39'1 1.8
2018-Jan-11 05:59N 31°57' W 080°40'3 5.8
2018-Jan-11 05:29N 31°56' W 080°43'2 4.3
2018-Jan-11 05:00N 31°56' W 080°45'4 7.3
2018-Jan-11 04:30N 31°57' W 080°41'2 4.1
2018-Jan-11 03:58N 31°57' W 080°38'0 0.8
2018-Jan-11 03:30N 31°57' W 080°39'1 1.3
2018-Jan-11 03:00N 31°57' W 080°40'2 4.6
2018-Jan-11 02:30N 31°57' W 080°42'3 5.2
2018-Jan-11 02:00N 31°56' W 080°45'3 5.6
2018-Jan-11 01:29N 31°56' W 080°42'1 0.5
2018-Jan-10 23:26N 31°56' W 080°43'3 6.0
2018-Jan-10 22:59N 31°56' W 080°46'5 2.1
2018-Jan-10 20:24N 31°57' W 080°40'2 3.9
2018-Jan-10 19:57N 31°57' W 080°42'3 5.8
2018-Jan-10 19:30N 31°56' W 080°45'0 0.1
2018-Jan-10 19:00N 31°56' W 080°45'4 7.2
2018-Jan-10 18:30N 31°56' W 080°40'2 2.1
2018-Jan-10 17:42N 31°57' W 080°39'2 2.3
2018-Jan-10 16:59N 31°57' W 080°41'3 5.9
2018-Jan-10 16:30N 31°56' W 080°44'1 1.6
2018-Jan-10 16:00N 31°56' W 080°45'2 1.0
2018-Jan-10 13:50N 31°57' W 080°42'3 6.8
2018-Jan-10 13:28N 31°56' W 080°45'1 2.8
2018-Jan-10 13:00N 31°57' W 080°47'4 5.9
2018-Jan-10 12:21N 31°56' W 080°42'3 4.5
2018-Jan-10 11:38N 31°57' W 080°38'0 0.5
2018-Jan-10 11:30N 31°57' W 080°39'0 0.7
2018-Jan-10 11:00N 31°57' W 080°39'2 4.4
2018-Jan-10 10:30N 31°57' W 080°42'3 6.9
2018-Jan-10 10:00N 31°56' W 080°46'0 0.3
2018-Jan-10 09:30N 31°56' W 080°46'4 7.1
2018-Jan-10 08:57N 31°56' W 080°41'3 6.4
2018-Jan-10 08:31N 31°57' W 080°38'1 1.7
2018-Jan-10 07:58N 31°57' W 080°39'0 0.9
2018-Jan-10 07:30N 31°57' W 080°39'3 5.9
2018-Jan-10 07:00N 31°57' W 080°43'2 4.2
2018-Jan-10 06:30N 31°56' W 080°45'3 6.7
2018-Jan-10 06:00N 31°57' W 080°41'2 2.8
2018-Jan-10 05:12N 31°57' W 080°38'0 1.0
2018-Jan-10 04:49N 31°57' W 080°39'1 1.7
2018-Jan-10 04:30N 31°57' W 080°39'3 6.6
2018-Jan-10 04:00N 31°56' W 080°43'2 3.0
2018-Jan-10 03:30N 31°56' W 080°45'4 8.0
2018-Jan-10 02:59N 31°57' W 080°40'1 2.4
2018-Jan-10 02:22N 31°57' W 080°38'0 0.8
2018-Jan-10 01:57N 31°57' W 080°39'0 0.5
2018-Jan-10 01:30N 31°57' W 080°39'3 5.8
2018-Jan-10 01:00N 31°57' W 080°42'3 6.8
2018-Jan-10 00:30N 31°56' W 080°46'2 4.0
2018-Jan-10 00:00N 31°57' W 080°44'2 3.6
2018-Jan-09 23:29N 31°57' W 080°42'3 6.3
2018-Jan-09 23:00N 31°57' W 080°38'6 0.2
2018-Jan-08 20:19N 31°60' W 080°44'0 0.0
2018-Jan-08 19:55N 31°60' W 080°44'0 0.0
2018-Jan-08 19:25N 31°60' W 080°44'0 0.0
2018-Jan-08 18:55N 31°60' W 080°44'0 0.0
2018-Jan-08 18:25N 31°60' W 080°44'0 0.0
2018-Jan-08 17:55N 31°60' W 080°44'0 0.0
2018-Jan-08 17:25N 31°60' W 080°44'0 0.0
2018-Jan-08 16:55N 31°60' W 080°44'0 0.0
2018-Jan-08 16:25N 31°60' W 080°44'0 0.0
2018-Jan-08 15:55N 31°60' W 080°44'0 0.0
2018-Jan-08 15:25N 31°60' W 080°44'0 0.0
2018-Jan-08 14:49N 31°60' W 080°44'0 0.0
2018-Jan-08 14:25N 31°60' W 080°44'0 0.0
2018-Jan-08 13:55N 31°60' W 080°44'0 0.0
2018-Jan-08 13:13N 31°60' W 080°44'0 0.0
2018-Jan-08 12:55N 31°60' W 080°44'0 0.0
2018-Jan-08 12:25N 31°60' W 080°44'0 0.0
2018-Jan-08 11:55N 31°60' W 080°44'0 0.0
2018-Jan-08 11:25N 31°60' W 080°44'0 0.0
2018-Jan-08 10:55N 31°60' W 080°44'0 0.0
2018-Jan-08 10:19N 31°60' W 080°44'0 0.0
2018-Jan-08 09:55N 31°60' W 080°44'  

Dump ship's entire track history